• Join FlightAware (Why Join?)
  • Login
  • US Flag 
09:46PM EST


 

Airport Tracker/Info


-or-


 

Live Flight TrackerFlight Track Log ✈ SKW5401 ✈ 08-May-2013 ✈ KPSC - KSFO

Flight Track Log - Related Links

Times and Time Zones

All times are in EDT time to prevent confusion due to time zone crossing. See the SKW5401 flight status page for this flight to view local times or setup timezone preferences in your user account.

Time Position Orientation Groundspeed Altitude Reporting Facility
EDT Latitude Longitude Course Direction KTS MPH feet Rate Location/Type
05:02PM 46.0878 -119.2069 220° Southwest 283 326 9,500  Level Seattle Center
05:03PM 46.0044 -119.1942 174° South 304 350 10,800 1,680 Climbing Seattle Center
05:04PM 45.4530 -119.3806 215° Southwest  Level FlightAware Approximate
05:04PM 45.9186 -119.2006 183° South 310 357 13,000  Level Seattle Center
05:05PM 45.3546 -119.4788 215° Southwest  Level FlightAware Approximate
05:05PM 45.8272 -119.2047 182° South 319 367 15,000  Level Seattle Center
05:06PM 45.2564 -119.5770 215° Southwest  Level FlightAware Approximate
05:06PM 45.7325 -119.2058 180° South 334 384 17,000  Level Seattle Center
05:07PM 45.1598 -119.6782 220° Southwest  Level FlightAware Approximate
05:07PM 45.6353 -119.2158 184° South 347 399 18,600  Level Seattle Center
05:08PM 45.5517 -119.3017 216° Southwest 363 418 20,100 1,320 Climbing Seattle Center
05:09PM 45.4669 -119.3897 216° Southwest 375 432 21,400 1,320 Climbing Seattle Center
05:10PM 45.3794 -119.4803 216° Southwest 387 445 22,800 1,260 Climbing Seattle Center
05:11PM 45.2908 -119.5694 215° Southwest 390 449 24,100 1,080 Climbing Seattle Center
05:12PM 45.2008 -119.6606 216° Southwest 395 455 25,100 1,020 Climbing Seattle Center
05:13PM 45.0906 -119.7703 215° Southwest 402 463 26,200 1,140 Climbing Seattle Center
05:14PM 44.9958 -119.8644 215° Southwest 410 472 27,500 1,320 Climbing Seattle Center
05:15PM 44.9178 -119.9400 214° Southwest 409 471 29,000 1,020 Climbing Seattle Center
05:16PM 44.8269 -120.0328 216° Southwest 394 453 29,600 660 Climbing Seattle Center
05:17PM 44.7361 -120.1222 215° Southwest 397 457 30,400 720 Climbing Seattle Center
05:18PM 44.6439 -120.2147 216° Southwest 406 467 31,100 660 Climbing Seattle Center
05:19PM 44.5311 -120.3242 215° Southwest 410 472 31,800 720 Climbing Seattle Center
05:20PM 44.4397 -120.4144 215° Southwest 410 472 32,600 540 Climbing Seattle Center
05:21PM 44.3425 -120.5064 214° Southwest 416 479 32,900 240 Climbing Seattle Center
05:22PM 44.2486 -120.5981 215° Southwest 415 478 33,100 360 Climbing Seattle Center
05:23PM 44.1497 -120.6908 214° Southwest 422 486 33,700 420 Climbing Seattle Center
05:24PM 44.0539 -120.7850 215° Southwest 423 487 34,000 120 Climbing Seattle Center
05:25PM 43.9506 -120.8614 208° Southwest 420 483 34,000  Level Seattle Center
05:26PM 43.8400 -120.9147 199° South 420 483 34,000  Level Seattle Center
05:27PM 43.7272 -120.9692 199° South 427 491 34,000  Level Seattle Center
05:28PM 43.6156 -121.0231 199° South 425 489 34,000  Level Seattle Center
05:29PM 43.4933 -121.0869 201° Southwest 429 494 34,000  Level Seattle Center
05:30PM 43.3786 -121.1344 197° South 431 496 34,000  Level Seattle Center
05:31PM 43.2633 -121.1772 195° South 431 496 34,000  Level Seattle Center
05:32PM 43.1497 -121.2331 200° South 432 497 34,000 240 Level Seattle Center
05:33PM 43.0422 -121.3083 207° Southwest 435 501 34,600 480 Climbing Seattle Center
05:34PM 42.9308 -121.3606 199° South 424 488 35,000 180 Climbing Seattle Center
05:35PM 42.8186 -121.4128 199° South 425 489 35,000  Level Seattle Center
05:36PM 42.7050 -121.4675 199° South 431 496 35,000  Level Seattle Center
05:37PM 42.5917 -121.5217 199° South 431 496 35,000  Level Seattle Center
05:38PM 42.4550 -121.5861 199° South 432 497 35,000  Level Seattle Center
05:39PM 42.3422 -121.6381 199° South 426 490 35,000  Level Seattle Center
05:40PM 42.2269 -121.6917 199° South 432 497 35,000  Level Seattle Center
05:41PM 42.1081 -121.7403 197° South 438 504 35,000  Level Seattle Center
05:42PM 41.9864 -121.7694 190° South 433 498 35,000  Level Seattle Center
05:43PM 41.8667 -121.8014 191° South 432 497 35,000  Level Seattle Center
05:44PM 41.7450 -121.8136 184° South 433 498 35,000  Level Seattle Center
05:45PM 41.6244 -121.8169 181° South 432 497 35,000  Level Seattle Center
05:46PM 41.5050 -121.8186 181° South 430 495 35,000  Level Seattle Center
05:47PM 41.3858 -121.8550 193° South 435 501 35,000  Level Seattle Center
05:48PM 41.2672 -121.8908 193° South 435 501 35,000  Level Seattle Center
05:49PM 41.1397 -121.9292 193° South 432 497 35,000  Level Seattle Center
05:50PM 41.1158 -121.9361 192° South 434 499 35,000  Level Oakland Center
05:51PM 40.9986 -121.9681 192° South 431 496 35,000  Level Oakland Center
05:52PM 40.8589 -122.0114 193° South 430 495 35,000  Level Oakland Center
05:53PM 40.7417 -122.0453 192° South 431 496 35,000  Level Oakland Center
05:54PM 40.6256 -122.0808 193° South 429 494 35,000  Level Oakland Center
05:55PM 40.5108 -122.1156 193° South 425 489 35,000  Level Oakland Center
05:56PM 40.3936 -122.1489 192° South 428 493 35,000  Level Oakland Center
05:57PM 40.2731 -122.1842 193° South 439 505 35,000  Level Oakland Center
05:58PM 40.1478 -122.2203 192° South 444 511 35,000  Level Oakland Center
05:59PM 40.0192 -122.2619 194° South 452 520 35,000  Level Oakland Center
06:00PM 39.8942 -122.3019 194° South 458 527 35,000  Level Oakland Center
06:01PM 39.7708 -122.3419 194° South 456 525 35,000  Level Oakland Center
06:02PM 39.6450 -122.3817 194° South 462 532 35,000  Level Oakland Center
06:03PM 39.5203 -122.4228 194° South 462 532 35,000  Level Oakland Center
06:04PM 39.3756 -122.4669 193° South 465 535 35,000  Level Oakland Center
06:05PM 39.2508 -122.5064 194° South 464 534 35,000 -240 Level Oakland Center
06:06PM 39.1247 -122.5461 194° South 466 536 34,600 -720 Descending Oakland Center
06:07PM 38.9961 -122.5856 193° South 473 544 33,600 -1,080 Descending Oakland Center
06:08PM 38.8508 -122.6306 194° South 466 536 32,400 -1,140 Descending Oakland Center
06:09PM 38.7258 -122.6694 194° South 464 534 31,300 -1,740 Descending Oakland Center
06:10PM 38.5981 -122.7089 194° South 470 541 28,900 -2,580 Descending Oakland Center
06:11PM 38.4717 -122.7478 194° South 468 539 26,100 -2,880 Descending Oakland Center
06:12PM 38.3475 -122.7867 194° South 463 533 23,100 -2,940 Descending Oakland Center
06:13PM 38.2250 -122.8239 193° South 457 526 20,100 -2,880 Descending Oakland Center
06:14PM 38.1103 -122.8553 192° South 427 491 17,300 -3,120 Descending Oakland Center
06:15PM 37.9981 -122.7783 152° Southeast 391 450 13,800 -3,060 Descending Oakland Center
06:16PM 37.9183 -122.6936 140° Southeast 383 441 11,100 -1,380 Descending Oakland Center
06:17PM 37.8411 -122.6106 140° Southeast 381 438 11,000 -120 Descending Oakland Center
06:18PM 37.8167 -122.5833 139° Southeast 355 409 11,000  Level Northern Cal TRACON
06:19PM 37.7500 -122.5167 142° Southeast 279 321 11,000  Level Northern Cal TRACON
06:20PM 37.7000 -122.4500 133° Southeast 227 261 11,000  Level Northern Cal TRACON
06:21PM 37.6500 -122.4000 142° Southeast 220 253 11,000 -60 Level Northern Cal TRACON
06:22PM 37.6147 -122.3700 146° Southeast 217 250 10,900 -720 Descending Oakland Center
06:23PM 37.5631 -122.3342 151° Southeast 214 246 9,700 -1,200 Descending Oakland Center
06:24PM 37.5100 -122.3025 155° Southeast 210 242 8,500 -1,200 Descending Oakland Center
06:25PM 37.4639 -122.2661 148° Southeast 213 245 7,300 -1,260 Descending Oakland Center
06:26PM 37.4508 -122.1992 104° East 198 228 6,000 -840 Descending Oakland Center
06:27PM 37.4367 -122.1319 105° East 200 230 5,600 -960 Descending Oakland Center
06:28PM 37.4833 -122.1167 15° North 189 217 3,900 -1,320 Descending Northern Cal TRACON
06:29PM 37.5169 -122.1417 329° Northwest 186 214 2,900 -1,200 Descending Oakland Center